KUOX/UOX METAR and TAF weather

Enter ICAO airport designator
Station Type Date Time Source
KUOX METAR 2022/05/26 04:35 UTC NOAA

KUOX 260435Z AUTO 15008KT 10SM FEW110 19/18 A2990 RMK AO2 PWINO


Station Type Date Time Source
KUOX Decoded METAR 2022/05/26 04:35 UTC NOAA

Oxford, University-Oxford Airport, MS, United States (KUOX) 34-23-04N 089-32-08W
May 26, 2022 - 12:35 AM EDT / 2022.05.26 0435 UTC
Wind: from the SSE (150 degrees) at 9 MPH (8 KT):0
Visibility: 10 mile(s):0
Sky conditions: mostly clear
Temperature: 66 F (19 C)
Dew Point: 64 F (18 C)
Relative Humidity: 93%
Pressure (altimeter): 29.9 in. Hg (1012 hPa)
ob: KUOX 260435Z AUTO 15008KT 10SM FEW110 19/18 A2990 RMK AO2 PWINO
cycle: 4

Station Type Date Time Source
KUOX TAF UTC NOAA

Error!

Example: see airport list